createdAt,value
2022-09-05T00:00:19.302Z,66.30
2022-09-05T00:01:27.433Z,66.30
2022-09-05T00:03:08.298Z,66.20
2022-09-05T00:04:24.409Z,66.30
2022-09-05T00:06:02.155Z,66.30
2022-09-05T00:07:59.936Z,66.80
2022-09-05T00:09:12.931Z,66.30
2022-09-05T00:10:36.088Z,66.30
2022-09-05T00:11:58.337Z,66.30
2022-09-05T00:13:06.831Z,66.30
2022-09-05T00:15:16.246Z,66.30
2022-09-05T00:16:30.247Z,66.30
2022-09-05T00:19:57.363Z,66.30
2022-09-05T00:24:18.889Z,66.30
2022-09-05T00:24:20.308Z,66.30
2022-09-05T00:24:35.421Z,66.30
2022-09-05T00:24:42.128Z,66.30
2022-09-05T00:26:02.167Z,66.30
2022-09-05T00:27:26.838Z,66.30
2022-09-05T00:29:01.966Z,66.30
2022-09-05T00:31:50.398Z,66.30
2022-09-05T00:31:57.396Z,66.30
2022-09-05T00:33:32.147Z,66.30
2022-09-05T00:34:59.181Z,66.30
2022-09-05T00:36:22.644Z,66.30
2022-09-05T00:37:36.387Z,66.30
2022-09-05T00:38:42.550Z,66.30
2022-09-05T00:39:47.678Z,66.30
2022-09-05T00:41:10.728Z,66.30
2022-09-05T00:42:21.374Z,66.20
2022-09-05T00:43:28.149Z,66.30
2022-09-05T00:44:34.098Z,66.30
2022-09-05T00:45:43.513Z,66.30
2022-09-05T00:47:40.809Z,66.30
2022-09-05T00:49:08.894Z,66.30
2022-09-05T00:50:27.863Z,66.20
2022-09-05T00:51:44.453Z,66.30
2022-09-05T00:53:07.840Z,66.30
2022-09-05T00:54:10.633Z,66.30
2022-09-05T00:55:45.458Z,66.30
2022-09-05T00:57:15.014Z,66.20
2022-09-05T00:58:57.736Z,66.30
2022-09-05T01:00:04.645Z,66.20
2022-09-05T01:01:27.479Z,66.20
2022-09-05T01:03:10.122Z,66.20
2022-09-05T01:04:34.026Z,66.20
2022-09-05T01:06:06.783Z,66.20
2022-09-05T01:07:27.678Z,66.20
2022-09-05T01:08:35.964Z,66.20
2022-09-05T01:09:53.339Z,66.20
2022-09-05T01:11:04.398Z,66.20
2022-09-05T01:12:14.351Z,66.20
2022-09-05T01:13:40.061Z,66.20
2022-09-05T01:14:56.921Z,66.10
2022-09-05T01:16:28.486Z,66.10
2022-09-05T01:17:51.705Z,66.20
2022-09-05T01:19:16.267Z,66.10
2022-09-05T01:20:51.929Z,66.20
2022-09-05T01:22:12.842Z,66.20
2022-09-05T01:23:29.723Z,66.20
2022-09-05T01:24:41.578Z,66.20
2022-09-05T01:26:07.857Z,66.20
2022-09-05T01:28:11.306Z,66.20
2022-09-05T01:29:27.747Z,66.10
2022-09-05T01:31:00.754Z,66.20
2022-09-05T01:32:17.353Z,66.10
2022-09-05T01:33:33.707Z,66.10
2022-09-05T01:35:09.662Z,66.20
2022-09-05T01:36:40.012Z,66.10
2022-09-05T01:37:52.836Z,66.10
2022-09-05T01:40:11.293Z,66.10
2022-09-05T01:41:17.671Z,66.10
2022-09-05T01:42:54.507Z,66.10
2022-09-05T01:44:12.362Z,66.10
2022-09-05T01:45:24.563Z,66.10
2022-09-05T01:46:56.506Z,66.00
2022-09-05T01:48:15.640Z,66.00
2022-09-05T01:49:20.416Z,66.00
2022-09-05T01:50:36.103Z,66.10
2022-09-05T01:51:41.949Z,66.10
2022-09-05T01:53:05.448Z,66.00
2022-09-05T01:54:21.489Z,66.00
2022-09-05T01:56:06.021Z,66.00
2022-09-05T01:57:48.930Z,66.00
2022-09-05T01:59:28.885Z,66.00
2022-09-05T02:00:39.657Z,66.00
2022-09-05T02:02:13.172Z,66.00
2022-09-05T02:03:44.741Z,66.00
2022-09-05T02:04:56.017Z,66.00
2022-09-05T02:06:07.419Z,66.00
2022-09-05T02:07:57.367Z,66.00
2022-09-05T02:09:18.723Z,66.00
2022-09-05T02:10:37.204Z,66.00
2022-09-05T02:11:51.067Z,66.50
2022-09-05T02:13:34.423Z,66.00
2022-09-05T02:14:51.594Z,65.90
2022-09-05T02:16:06.735Z,65.90
2022-09-05T02:17:50.695Z,65.90
2022-09-05T02:18:57.607Z,65.90
2022-09-05T02:20:26.613Z,66.00
2022-09-05T02:21:55.535Z,66.00
2022-09-05T02:23:26.093Z,65.90
2022-09-05T02:24:43.241Z,65.90
2022-09-05T02:26:03.651Z,65.90
2022-09-05T02:27:06.185Z,65.90
2022-09-05T02:28:21.911Z,65.90
2022-09-05T02:29:47.556Z,65.90
2022-09-05T02:31:20.478Z,65.90
2022-09-05T02:32:32.226Z,65.90
2022-09-05T02:33:47.355Z,65.90
2022-09-05T02:35:07.733Z,65.80
2022-09-05T02:36:26.419Z,65.90
2022-09-05T02:40:36.234Z,65.90
2022-09-05T02:45:03.086Z,65.90
2022-09-05T02:45:08.711Z,65.90
2022-09-05T02:45:11.156Z,65.80
2022-09-05T02:45:19.648Z,65.80
2022-09-05T02:46:02.412Z,65.90
2022-09-05T02:47:11.208Z,65.90
2022-09-05T02:48:45.559Z,65.80
2022-09-05T02:53:15.968Z,65.80
2022-09-05T02:57:25.370Z,65.90
2022-09-05T02:57:33.867Z,65.80
2022-09-05T02:57:39.220Z,65.80
2022-09-05T02:57:41.940Z,65.80
2022-09-05T02:58:25.819Z,65.80
2022-09-05T03:00:11.921Z,65.80
2022-09-05T03:01:21.573Z,65.70
2022-09-05T03:02:27.184Z,65.80
2022-09-05T03:03:43.822Z,65.80
2022-09-05T03:05:05.084Z,65.80
2022-09-05T03:06:34.601Z,65.80
2022-09-05T03:08:21.051Z,66.00
2022-09-05T03:10:03.249Z,65.80
2022-09-05T03:11:36.635Z,65.80
2022-09-05T03:13:05.880Z,65.90
2022-09-05T03:15:23.072Z,65.80
2022-09-05T03:16:46.907Z,65.90
2022-09-05T03:18:31.281Z,65.90
2022-09-05T03:19:46.573Z,66.50
2022-09-05T03:21:19.780Z,66.00
2022-09-05T03:22:37.840Z,66.00
2022-09-05T03:24:11.828Z,66.00
2022-09-05T03:25:41.691Z,65.90
2022-09-05T03:26:52.748Z,65.90
2022-09-05T03:28:19.866Z,65.90
2022-09-05T03:29:48.374Z,65.90
2022-09-05T03:31:23.389Z,65.90
2022-09-05T03:33:03.443Z,65.90
2022-09-05T03:34:47.716Z,65.90
2022-09-05T03:36:24.414Z,65.80
2022-09-05T03:38:01.764Z,66.30
2022-09-05T03:39:18.979Z,65.80
2022-09-05T03:40:42.579Z,65.80
2022-09-05T03:41:55.348Z,65.80
2022-09-05T03:43:31.967Z,65.80
2022-09-05T03:44:40.137Z,65.70
2022-09-05T03:45:55.844Z,65.70
2022-09-05T03:47:58.498Z,65.70
2022-09-05T03:53:45.301Z,65.70
2022-09-05T03:57:10.565Z,65.70
2022-09-05T03:57:18.323Z,65.70
2022-09-05T03:57:20.403Z,65.70
2022-09-05T03:57:33.833Z,65.60
2022-09-05T03:59:05.913Z,65.60
2022-09-05T04:00:23.438Z,65.60
2022-09-05T04:03:30.811Z,65.60
2022-09-05T04:08:10.873Z,65.50
2022-09-05T04:08:17.537Z,65.50
2022-09-05T04:08:17.616Z,65.50
2022-09-05T04:08:27.565Z,65.50
2022-09-05T04:09:22.673Z,65.50
2022-09-05T04:10:53.599Z,65.40
2022-09-05T04:12:00.335Z,65.40
2022-09-05T04:13:26.563Z,65.40
2022-09-05T04:14:49.533Z,65.30
2022-09-05T04:16:17.705Z,65.40
2022-09-05T04:17:31.822Z,65.30
2022-09-05T04:18:39.757Z,65.20
2022-09-05T04:19:49.986Z,65.30
2022-09-05T04:21:05.022Z,65.20
2022-09-05T04:22:26.373Z,65.20
2022-09-05T04:23:47.156Z,65.20
2022-09-05T04:25:16.803Z,65.20
2022-09-05T04:26:43.348Z,65.10
2022-09-05T04:28:13.117Z,65.10
2022-09-05T04:29:45.561Z,65.10
2022-09-05T04:30:55.207Z,65.20
2022-09-05T04:32:18.011Z,65.10
2022-09-05T04:33:43.081Z,65.10
2022-09-05T04:34:54.226Z,65.00
2022-09-05T04:36:18.263Z,65.10
2022-09-05T04:37:55.926Z,65.10
2022-09-05T04:39:24.317Z,65.00
2022-09-05T04:41:10.809Z,65.00
2022-09-05T04:42:24.355Z,65.00
2022-09-05T04:43:36.283Z,64.90
2022-09-05T04:44:48.147Z,64.90
2022-09-05T04:45:54.184Z,64.90
2022-09-05T04:47:09.547Z,64.90
2022-09-05T04:48:21.652Z,64.90
2022-09-05T04:49:32.806Z,64.90
2022-09-05T04:50:51.304Z,64.80
2022-09-05T04:52:24.085Z,64.80
2022-09-05T04:53:49.267Z,64.80
2022-09-05T04:55:15.094Z,64.80
2022-09-05T04:56:25.710Z,64.80
2022-09-05T04:57:48.347Z,64.80
2022-09-05T05:02:38.131Z,64.70
2022-09-05T05:06:01.188Z,64.80
2022-09-05T05:06:04.333Z,64.70
2022-09-05T05:06:11.229Z,64.70
2022-09-05T05:06:11.745Z,64.70
2022-09-05T05:07:30.703Z,64.60
2022-09-05T05:08:45.738Z,64.60
2022-09-05T05:10:13.382Z,64.60
2022-09-05T05:17:57.610Z,64.60
2022-09-05T05:17:57.835Z,64.50
2022-09-05T05:18:09.264Z,64.50
2022-09-05T05:18:15.635Z,64.50
2022-09-05T05:18:49.183Z,64.50
2022-09-05T05:20:42.018Z,64.50
2022-09-05T05:21:27.411Z,64.40
2022-09-05T05:22:29.867Z,64.40
2022-09-05T05:23:53.735Z,64.40
2022-09-05T05:24:57.405Z,64.40
2022-09-05T05:26:02.401Z,64.40
2022-09-05T05:27:17.096Z,64.40
2022-09-05T05:28:41.968Z,64.40
2022-09-05T05:30:03.907Z,64.40
2022-09-05T05:31:34.474Z,64.30
2022-09-05T05:32:45.475Z,64.40
2022-09-05T05:33:51.511Z,64.30
2022-09-05T05:35:02.040Z,64.30
2022-09-05T05:36:08.979Z,64.30
2022-09-05T05:37:11.298Z,64.30
2022-09-05T05:38:16.604Z,64.30
2022-09-05T05:39:29.936Z,64.30
2022-09-05T05:40:38.361Z,64.20
2022-09-05T05:41:57.787Z,64.30
2022-09-05T05:43:36.587Z,64.30
2022-09-05T05:44:39.185Z,64.20
2022-09-05T05:45:44.485Z,64.30
2022-09-05T05:47:16.530Z,64.20
2022-09-05T05:48:39.684Z,64.20
2022-09-05T05:49:53.818Z,64.20
2022-09-05T05:51:16.408Z,64.20
2022-09-05T05:52:39.803Z,64.20
2022-09-05T05:54:18.255Z,64.20
2022-09-05T05:55:53.546Z,64.10
2022-09-05T05:57:15.170Z,64.10
2022-09-05T05:58:41.831Z,64.10
2022-09-05T05:59:56.324Z,64.10
2022-09-05T06:01:37.987Z,64.00
2022-09-05T06:03:25.632Z,64.10
2022-09-05T06:05:13.407Z,64.00
2022-09-05T06:06:54.044Z,64.00
2022-09-05T06:09:18.428Z,64.00
2022-09-05T06:14:50.351Z,64.00
2022-09-05T06:15:01.923Z,64.00
2022-09-05T06:15:05.110Z,64.00
2022-09-05T06:15:26.729Z,64.00
2022-09-05T06:16:44.709Z,64.00
2022-09-05T06:18:24.798Z,63.90
2022-09-05T06:20:22.945Z,63.90
2022-09-05T06:22:10.651Z,63.90
2022-09-05T06:23:03.688Z,63.90
2022-09-05T06:24:07.738Z,63.90
2022-09-05T06:25:47.599Z,63.90
2022-09-05T06:27:13.197Z,63.80
2022-09-05T06:28:56.369Z,63.90
2022-09-05T06:30:05.666Z,63.90
2022-09-05T06:31:31.175Z,63.80
2022-09-05T06:32:58.802Z,63.80
2022-09-05T06:34:35.365Z,63.80
2022-09-05T06:35:49.656Z,63.80
2022-09-05T06:37:24.062Z,63.80
2022-09-05T06:38:52.608Z,63.80
2022-09-05T06:40:09.570Z,63.80
2022-09-05T06:41:29.835Z,63.80
2022-09-05T06:43:04.534Z,63.80
2022-09-05T06:44:12.757Z,63.80
2022-09-05T06:46:07.205Z,63.80
2022-09-05T06:47:23.998Z,63.80
2022-09-05T06:48:47.028Z,63.70
2022-09-05T06:50:27.594Z,63.70
2022-09-05T06:51:44.912Z,63.70
2022-09-05T06:53:28.939Z,63.70
2022-09-05T06:54:31.407Z,63.70
2022-09-05T06:55:43.603Z,63.70
2022-09-05T06:56:54.859Z,63.70
2022-09-05T06:58:14.780Z,63.80
2022-09-05T06:59:41.333Z,63.70
2022-09-05T07:00:47.668Z,63.70
2022-09-05T07:02:01.074Z,63.70
2022-09-05T07:03:24.902Z,63.60
2022-09-05T07:05:36.801Z,63.70
2022-09-05T07:06:20.183Z,63.70
2022-09-05T07:07:54.316Z,63.60
2022-09-05T07:09:08.570Z,63.60
2022-09-05T07:10:43.304Z,63.70
2022-09-05T07:12:13.253Z,63.70
2022-09-05T07:13:23.205Z,63.60
2022-09-05T07:14:32.190Z,63.70
2022-09-05T07:15:56.541Z,63.60
2022-09-05T07:17:07.674Z,63.60
2022-09-05T07:18:37.734Z,63.60
2022-09-05T07:19:50.858Z,63.60
2022-09-05T07:21:26.343Z,63.60
2022-09-05T07:22:48.427Z,63.60
2022-09-05T07:24:09.183Z,63.60
2022-09-05T07:25:18.455Z,63.60
2022-09-05T07:26:51.617Z,63.60
2022-09-05T07:28:26.961Z,63.60
2022-09-05T07:29:18.067Z,63.60
2022-09-05T07:30:20.897Z,63.70
2022-09-05T07:31:37.644Z,63.60
2022-09-05T07:32:44.435Z,63.60
2022-09-05T07:33:48.158Z,63.60
2022-09-05T07:34:52.292Z,63.60
2022-09-05T07:36:00.160Z,63.70
2022-09-05T07:37:14.760Z,63.60
2022-09-05T07:38:38.230Z,63.60
2022-09-05T07:39:58.369Z,63.70
2022-09-05T07:41:30.133Z,63.70
2022-09-05T07:42:44.307Z,63.60
2022-09-05T07:43:57.643Z,63.60
2022-09-05T07:45:08.460Z,63.70
2022-09-05T07:46:23.194Z,63.70
2022-09-05T07:47:36.655Z,63.70
2022-09-05T07:48:53.575Z,63.70
2022-09-05T07:52:00.760Z,63.60
2022-09-05T07:56:55.290Z,63.70
2022-09-05T07:56:55.564Z,63.70
2022-09-05T07:57:00.911Z,63.70
2022-09-05T07:57:10.214Z,63.70
2022-09-05T07:57:30.865Z,63.70
2022-09-05T07:59:08.352Z,63.70
2022-09-05T08:00:29.589Z,63.80
2022-09-05T08:01:32.995Z,63.70
2022-09-05T08:02:54.093Z,64.30
2022-09-05T08:03:57.325Z,63.80
2022-09-05T08:05:08.232Z,63.80
2022-09-05T08:07:14.302Z,63.80
2022-09-05T08:08:09.187Z,63.80
2022-09-05T08:09:45.506Z,63.80
2022-09-05T08:11:22.843Z,63.80
2022-09-05T08:12:28.121Z,63.80
2022-09-05T08:13:40.192Z,63.80
2022-09-05T08:15:02.118Z,63.90
2022-09-05T08:16:12.945Z,63.90
2022-09-05T08:17:21.096Z,63.90
2022-09-05T08:18:59.582Z,63.90
2022-09-05T08:20:14.176Z,63.90
2022-09-05T08:21:32.734Z,63.90
2022-09-05T08:22:55.864Z,63.90
2022-09-05T08:24:13.653Z,63.90
2022-09-05T08:25:42.874Z,64.00
2022-09-05T08:27:04.905Z,64.00
2022-09-05T08:28:45.812Z,64.00
2022-09-05T08:30:24.390Z,64.00
2022-09-05T08:31:24.357Z,64.00
2022-09-05T08:32:46.271Z,64.00
2022-09-05T08:33:52.768Z,64.00
2022-09-05T08:35:06.846Z,64.00
2022-09-05T08:36:14.522Z,64.10
2022-09-05T08:37:22.364Z,64.10
2022-09-05T08:38:25.819Z,64.10
2022-09-05T08:39:31.949Z,64.10
2022-09-05T08:40:46.781Z,64.10
2022-09-05T08:42:16.072Z,64.10
2022-09-05T08:46:35.293Z,64.70
2022-09-05T08:46:48.536Z,64.20
2022-09-05T08:46:55.921Z,64.20
2022-09-05T08:48:20.014Z,64.20
2022-09-05T08:49:46.161Z,64.20
2022-09-05T08:51:19.100Z,64.20
2022-09-05T08:52:44.637Z,64.20
2022-09-05T08:54:11.899Z,64.30
2022-09-05T08:55:43.009Z,64.80
2022-09-05T08:56:54.672Z,64.30
2022-09-05T08:58:08.745Z,64.30
2022-09-05T09:00:10.343Z,64.30
2022-09-05T09:01:22.876Z,64.30
2022-09-05T09:03:05.045Z,64.30
2022-09-05T09:05:01.202Z,64.80
2022-09-05T09:06:18.445Z,64.30
2022-09-05T09:07:51.600Z,64.40
2022-09-05T09:09:25.375Z,64.40
2022-09-05T09:11:09.852Z,64.40
2022-09-05T09:12:24.470Z,64.40
2022-09-05T09:13:54.024Z,64.40
2022-09-05T09:15:06.411Z,64.40
2022-09-05T09:16:30.110Z,64.40
2022-09-05T09:17:50.201Z,64.40
2022-09-05T09:18:52.527Z,64.50
2022-09-05T09:20:09.742Z,64.50
2022-09-05T09:21:30.156Z,64.50
2022-09-05T09:22:54.711Z,64.50
2022-09-05T09:24:28.174Z,64.50
2022-09-05T09:26:00.507Z,64.50
2022-09-05T09:27:16.529Z,64.50
2022-09-05T09:28:47.884Z,64.50
2022-09-05T09:29:58.954Z,64.60
2022-09-05T09:31:33.913Z,64.50
2022-09-05T09:32:45.354Z,64.60
2022-09-05T09:34:09.845Z,64.60
2022-09-05T09:35:22.044Z,64.60
2022-09-05T09:36:46.335Z,64.70
2022-09-05T09:37:59.554Z,64.60
2022-09-05T09:39:37.164Z,64.60
2022-09-05T09:40:52.360Z,64.60
2022-09-05T09:42:09.297Z,64.60
2022-09-05T09:43:31.928Z,64.70
2022-09-05T09:45:28.780Z,64.70
2022-09-05T09:46:39.261Z,64.70
2022-09-05T09:48:06.789Z,64.70
2022-09-05T09:49:23.245Z,64.70
2022-09-05T09:50:35.266Z,64.70
2022-09-05T09:52:22.034Z,64.70
2022-09-05T09:54:03.108Z,64.70
2022-09-05T09:55:32.874Z,64.70
2022-09-05T09:56:52.300Z,64.80
2022-09-05T09:58:11.564Z,64.70
2022-09-05T09:59:54.870Z,64.80
2022-09-05T10:01:36.259Z,64.80
2022-09-05T10:05:13.183Z,64.80
2022-09-05T10:10:35.163Z,64.80
2022-09-05T10:10:38.471Z,64.80
2022-09-05T10:10:46.905Z,64.80
2022-09-05T10:10:54.222Z,64.80
2022-09-05T10:11:55.899Z,64.80
2022-09-05T10:13:17.058Z,64.90
2022-09-05T10:15:00.305Z,64.90
2022-09-05T10:16:27.212Z,64.90
2022-09-05T10:17:38.898Z,64.90
2022-09-05T10:19:08.569Z,65.00
2022-09-05T10:20:36.036Z,65.40
2022-09-05T10:24:03.512Z,64.90
2022-09-05T10:25:23.765Z,64.90
2022-09-05T10:27:01.236Z,65.00
2022-09-05T10:28:06.542Z,65.00
2022-09-05T10:29:37.164Z,65.00
2022-09-05T10:32:23.197Z,65.10
2022-09-05T10:34:52.143Z,65.50
2022-09-05T10:35:09.031Z,65.00
2022-09-05T10:35:27.767Z,65.00
2022-09-05T10:36:31.693Z,65.00
2022-09-05T10:37:43.374Z,65.00
2022-09-05T10:38:50.170Z,65.60
2022-09-05T10:39:53.133Z,65.00
2022-09-05T10:41:20.903Z,65.00
2022-09-05T10:42:43.325Z,65.00
2022-09-05T10:44:02.238Z,65.10
2022-09-05T10:45:31.377Z,65.10
2022-09-05T10:47:06.240Z,65.20
2022-09-05T10:48:26.368Z,65.10
2022-09-05T10:49:33.830Z,65.10
2022-09-05T10:50:54.702Z,65.10
2022-09-05T10:52:18.401Z,65.10
2022-09-05T10:53:39.575Z,65.10
2022-09-05T10:55:13.848Z,65.20
2022-09-05T10:56:37.163Z,65.10
2022-09-05T10:59:37.402Z,65.20
2022-09-05T11:02:20.509Z,65.20
2022-09-05T11:02:28.712Z,65.20
2022-09-05T11:03:05.070Z,65.20
2022-09-05T11:04:46.699Z,65.30
2022-09-05T11:05:58.739Z,65.30
2022-09-05T11:07:18.544Z,65.20
2022-09-05T11:08:41.583Z,65.20
2022-09-05T11:09:56.168Z,65.20
2022-09-05T11:11:17.247Z,65.20
2022-09-05T11:12:57.633Z,65.30
2022-09-05T11:14:26.536Z,65.20
2022-09-05T11:16:10.261Z,65.30
2022-09-05T11:17:43.995Z,65.40
2022-09-05T11:18:57.176Z,65.40
2022-09-05T11:20:27.622Z,65.40
2022-09-05T11:22:07.409Z,65.30
2022-09-05T11:23:57.211Z,65.30
2022-09-05T11:25:03.746Z,65.40
2022-09-05T11:26:13.313Z,65.40
2022-09-05T11:27:40.739Z,65.40
2022-09-05T11:29:00.644Z,65.40
2022-09-05T11:30:07.770Z,65.40
2022-09-05T11:31:17.808Z,65.40
2022-09-05T11:37:37.154Z,65.40
2022-09-05T11:39:42.499Z,65.40
2022-09-05T11:39:56.164Z,65.60
2022-09-05T11:40:02.467Z,65.50
2022-09-05T11:40:07.646Z,65.40
2022-09-05T11:41:21.754Z,65.50
2022-09-05T11:42:27.581Z,65.50
2022-09-05T11:43:46.162Z,65.50
2022-09-05T11:45:07.961Z,65.50
2022-09-05T11:46:30.045Z,65.50
2022-09-05T11:48:18.739Z,65.50
2022-09-05T11:49:37.744Z,65.50
2022-09-05T11:50:50.004Z,65.50
2022-09-05T11:51:52.469Z,65.50
2022-09-05T11:53:22.655Z,65.50
2022-09-05T11:54:57.250Z,65.50
2022-09-05T11:56:16.231Z,65.50
2022-09-05T11:57:42.924Z,65.50
2022-09-05T11:59:13.855Z,65.50
2022-09-05T12:00:38.824Z,65.60
2022-09-05T12:02:24.120Z,65.50
2022-09-05T12:03:58.804Z,65.50
2022-09-05T12:05:49.484Z,66.10
2022-09-05T12:07:04.091Z,65.50
2022-09-05T12:08:44.337Z,65.50
2022-09-05T12:10:05.296Z,65.60
2022-09-05T12:11:38.806Z,65.60
2022-09-05T12:13:17.654Z,65.60
2022-09-05T12:14:54.892Z,65.50
2022-09-05T12:16:07.296Z,65.50
2022-09-05T12:17:34.871Z,65.60
2022-09-05T12:18:53.996Z,65.60
2022-09-05T12:20:22.129Z,65.60
2022-09-05T12:21:28.990Z,65.60
2022-09-05T12:22:49.148Z,65.60
2022-09-05T12:24:35.388Z,65.60
2022-09-05T12:27:36.459Z,65.60
2022-09-05T12:27:44.469Z,65.60
2022-09-05T12:29:33.892Z,65.70
2022-09-05T12:30:21.878Z,65.50
2022-09-05T12:32:49.501Z,65.60
2022-09-05T12:36:05.731Z,65.60
2022-09-05T12:36:10.454Z,65.60
2022-09-05T12:40:38.343Z,65.60
2022-09-05T12:40:53.983Z,65.60
2022-09-05T12:41:35.732Z,65.60
2022-09-05T12:42:13.954Z,65.60
2022-09-05T12:44:39.564Z,65.60
2022-09-05T12:45:09.735Z,65.50
2022-09-05T12:46:24.690Z,65.60
2022-09-05T12:47:30.038Z,65.60
2022-09-05T12:49:06.851Z,65.60
2022-09-05T12:50:17.914Z,65.60
2022-09-05T12:51:46.568Z,65.60
2022-09-05T12:52:50.256Z,65.60
2022-09-05T12:54:01.220Z,65.60
2022-09-05T12:55:08.006Z,65.60
2022-09-05T12:58:57.223Z,65.60
2022-09-05T13:02:56.931Z,65.60
2022-09-05T13:03:08.784Z,65.60
2022-09-05T13:03:09.381Z,65.70
2022-09-05T13:03:28.153Z,65.60
2022-09-05T13:05:01.719Z,65.60
2022-09-05T13:06:24.577Z,65.60
2022-09-05T13:07:31.210Z,65.60
2022-09-05T13:08:52.860Z,66.10
2022-09-05T13:14:46.247Z,65.60
2022-09-05T13:14:47.484Z,65.60
2022-09-05T13:14:53.866Z,65.60
2022-09-05T13:15:18.759Z,65.60
2022-09-05T13:16:28.877Z,65.60
2022-09-05T13:17:51.369Z,65.70
2022-09-05T13:19:02.234Z,65.60
2022-09-05T13:20:36.587Z,65.60
2022-09-05T13:21:45.493Z,65.60
2022-09-05T13:22:50.470Z,65.60
2022-09-05T13:24:11.953Z,65.60
2022-09-05T13:25:29.479Z,65.70
2022-09-05T13:26:41.144Z,65.60
2022-09-05T13:27:56.597Z,65.70
2022-09-05T13:29:10.421Z,65.60
2022-09-05T13:37:20.001Z,65.60
2022-09-05T13:37:58.025Z,65.70
2022-09-05T13:38:07.998Z,65.60
2022-09-05T13:38:08.370Z,65.70
2022-09-05T13:38:15.759Z,65.60
2022-09-05T13:38:16.014Z,65.70
2022-09-05T13:39:18.007Z,65.70
2022-09-05T13:40:23.722Z,66.20
2022-09-05T13:41:32.309Z,65.70
2022-09-05T13:42:40.481Z,65.60
2022-09-05T13:43:45.144Z,65.70
2022-09-05T13:44:54.905Z,65.70
2022-09-05T13:46:18.635Z,65.70
2022-09-05T13:47:39.728Z,65.70
2022-09-05T13:50:27.526Z,65.70
2022-09-05T13:51:38.956Z,65.60
2022-09-05T13:52:46.037Z,65.70
2022-09-05T13:53:58.721Z,65.60
2022-09-05T13:55:15.205Z,65.70
2022-09-05T13:56:23.971Z,65.70
2022-09-05T13:57:46.324Z,65.70
2022-09-05T13:58:57.336Z,65.60
2022-09-05T14:00:27.773Z,65.60
2022-09-05T14:02:26.712Z,65.70
2022-09-05T14:03:55.624Z,65.70
2022-09-05T14:05:20.858Z,65.70
2022-09-05T14:06:48.804Z,65.70
2022-09-05T14:08:20.551Z,65.80
2022-09-05T14:10:09.093Z,65.60
2022-09-05T14:11:44.966Z,65.60
2022-09-05T14:13:02.388Z,65.70
2022-09-05T14:14:11.375Z,65.60
2022-09-05T14:15:38.829Z,65.60
2022-09-05T14:18:59.141Z,65.70
2022-09-05T14:20:24.247Z,65.60
2022-09-05T14:21:29.775Z,65.70
2022-09-05T14:22:59.486Z,65.70
2022-09-05T14:24:16.966Z,65.70
2022-09-05T14:25:37.664Z,65.70
2022-09-05T14:26:47.168Z,65.70
2022-09-05T14:27:50.321Z,65.70
2022-09-05T14:29:06.114Z,65.60
2022-09-05T14:31:37.174Z,65.70
2022-09-05T14:36:58.555Z,65.70
2022-09-05T14:37:41.282Z,65.70
2022-09-05T14:37:50.191Z,65.70
2022-09-05T14:38:01.386Z,65.70
2022-09-05T14:38:20.185Z,65.70
2022-09-05T14:39:58.025Z,65.70
2022-09-05T14:41:18.712Z,65.60
2022-09-05T14:42:33.233Z,65.70
2022-09-05T14:43:57.150Z,65.70
2022-09-05T14:45:37.056Z,65.60
2022-09-05T14:47:36.466Z,65.70
2022-09-05T14:48:58.916Z,65.70
2022-09-05T14:50:21.143Z,65.70
2022-09-05T14:51:39.558Z,65.70
2022-09-05T14:56:50.125Z,65.70
2022-09-05T15:02:39.899Z,65.60
2022-09-05T15:02:44.702Z,65.70
2022-09-05T15:02:49.859Z,65.60
2022-09-05T15:02:50.864Z,65.60
2022-09-05T15:05:12.747Z,65.60
2022-09-05T15:06:21.090Z,65.60
2022-09-05T15:07:43.045Z,65.60
2022-09-05T15:11:24.474Z,65.70
2022-09-05T15:11:24.761Z,65.60
2022-09-05T15:12:19.619Z,65.60
2022-09-05T15:13:05.480Z,65.60
2022-09-05T15:14:10.067Z,65.70
2022-09-05T15:15:38.461Z,65.70
2022-09-05T15:16:56.041Z,65.60
2022-09-05T15:18:01.284Z,65.60
2022-09-05T15:19:03.893Z,65.60
2022-09-05T15:20:08.674Z,65.60
2022-09-05T15:21:33.260Z,65.60
2022-09-05T15:22:44.752Z,65.60
2022-09-05T15:24:19.109Z,65.60
2022-09-05T15:25:27.312Z,65.60
2022-09-05T15:26:31.240Z,65.60
2022-09-05T15:27:33.945Z,65.60
2022-09-05T15:28:38.905Z,65.60
2022-09-05T15:29:42.184Z,65.60
2022-09-05T15:31:00.570Z,65.60
2022-09-05T15:32:25.956Z,65.60
2022-09-05T15:33:31.061Z,65.60
2022-09-05T15:34:33.697Z,65.60
2022-09-05T15:35:42.241Z,65.60
2022-09-05T15:36:44.813Z,65.60
2022-09-05T15:37:49.380Z,65.60
2022-09-05T15:38:56.218Z,65.60
2022-09-05T15:40:02.207Z,65.50
2022-09-05T15:41:28.954Z,65.50
2022-09-05T15:42:41.832Z,65.50
2022-09-05T15:43:56.709Z,65.50
2022-09-05T15:45:16.767Z,65.50
2022-09-05T15:46:51.281Z,65.50
2022-09-05T15:48:12.547Z,65.60
2022-09-05T15:49:35.012Z,65.50
2022-09-05T15:50:48.057Z,65.50
2022-09-05T15:51:53.487Z,65.50
2022-09-05T15:52:56.172Z,65.50
2022-09-05T15:53:58.596Z,65.50
2022-09-05T15:55:16.590Z,65.50
2022-09-05T15:56:21.017Z,65.50
2022-09-05T15:57:30.010Z,65.50
2022-09-05T15:58:52.683Z,65.50
2022-09-05T15:59:58.464Z,65.50
2022-09-05T16:01:15.609Z,65.50
2022-09-05T16:02:38.098Z,65.50
2022-09-05T16:04:01.188Z,65.50
2022-09-05T16:10:28.918Z,65.50
2022-09-05T16:10:31.873Z,65.50
2022-09-05T16:10:33.770Z,65.50
2022-09-05T16:10:39.838Z,65.50
2022-09-05T16:11:54.122Z,65.50
2022-09-05T16:12:46.457Z,65.50
2022-09-05T16:13:52.931Z,65.40
2022-09-05T16:18:08.341Z,65.50
2022-09-05T16:23:15.839Z,65.40
2022-09-05T16:23:19.951Z,65.40
2022-09-05T16:23:24.444Z,65.40
2022-09-05T16:23:30.071Z,65.40
2022-09-05T16:23:32.903Z,65.40
2022-09-05T16:24:05.512Z,65.40
2022-09-05T16:25:20.777Z,65.40
2022-09-05T16:26:28.316Z,65.40
2022-09-05T16:27:44.464Z,65.30
2022-09-05T16:28:51.246Z,65.40
2022-09-05T16:29:53.743Z,65.40
2022-09-05T16:31:07.336Z,65.30
2022-09-05T16:32:25.335Z,65.40
2022-09-05T16:33:31.887Z,65.40
2022-09-05T16:34:57.421Z,65.30
2022-09-05T16:36:18.000Z,65.30
2022-09-05T16:37:48.133Z,65.30
2022-09-05T16:38:56.954Z,65.30
2022-09-05T16:40:24.204Z,65.30
2022-09-05T16:41:48.545Z,65.20
2022-09-05T16:43:15.491Z,65.20
2022-09-05T16:44:40.812Z,65.20
2022-09-05T16:45:54.873Z,65.30
2022-09-05T16:47:26.070Z,65.30
2022-09-05T16:48:46.504Z,65.30
2022-09-05T16:50:00.219Z,65.20
2022-09-05T16:51:17.734Z,65.20
2022-09-05T16:52:58.694Z,65.20
2022-09-05T16:54:25.403Z,65.20
2022-09-05T16:55:41.020Z,65.20
2022-09-05T16:56:48.250Z,65.20
2022-09-05T16:58:14.134Z,65.20
2022-09-05T16:59:22.473Z,65.20
2022-09-05T17:00:24.956Z,65.10
2022-09-05T17:01:54.768Z,65.70
2022-09-05T17:03:42.841Z,65.10
2022-09-05T17:05:09.277Z,65.10
2022-09-05T17:06:45.133Z,65.10
2022-09-05T17:07:59.156Z,65.10
2022-09-05T17:09:12.759Z,65.60
2022-09-05T17:10:24.859Z,65.00
2022-09-05T17:11:29.390Z,65.00
2022-09-05T17:12:37.438Z,65.00
2022-09-05T17:13:46.613Z,65.00
2022-09-05T17:14:53.846Z,65.00
2022-09-05T17:16:00.357Z,65.00
2022-09-05T17:18:12.790Z,65.00
2022-09-05T17:18:38.645Z,65.00
2022-09-05T17:20:06.882Z,65.00
2022-09-05T17:21:29.990Z,64.90
2022-09-05T17:25:57.143Z,64.90
2022-09-05T17:29:17.406Z,64.90
2022-09-05T17:29:24.033Z,64.90
2022-09-05T17:29:25.253Z,64.90
2022-09-05T17:29:31.264Z,64.90
2022-09-05T17:31:55.089Z,64.90
2022-09-05T17:32:58.280Z,64.90
2022-09-05T17:34:44.690Z,64.80
2022-09-05T17:36:01.134Z,64.80
2022-09-05T17:37:11.123Z,64.80
2022-09-05T17:38:24.876Z,64.80
2022-09-05T17:39:44.473Z,64.80
2022-09-05T17:41:13.792Z,64.80
2022-09-05T17:42:34.214Z,64.80
2022-09-05T17:43:41.337Z,64.80
2022-09-05T17:45:13.019Z,64.80
2022-09-05T17:46:26.025Z,64.80
2022-09-05T17:47:36.335Z,64.80
2022-09-05T17:49:18.072Z,64.70
2022-09-05T17:50:50.953Z,64.70
2022-09-05T17:51:53.275Z,64.70
2022-09-05T17:52:56.453Z,64.80
2022-09-05T17:54:15.792Z,64.70
2022-09-05T17:55:18.534Z,64.70
2022-09-05T17:56:47.663Z,64.70
2022-09-05T17:57:50.157Z,64.70
2022-09-05T17:59:09.019Z,64.70
2022-09-05T18:00:42.520Z,64.70
2022-09-05T18:02:03.225Z,64.70
2022-09-05T18:03:05.794Z,64.70
2022-09-05T18:04:17.877Z,64.70
2022-09-05T18:06:00.969Z,64.70
2022-09-05T18:07:25.978Z,64.60
2022-09-05T18:08:49.736Z,64.60
2022-09-05T18:10:14.568Z,64.70
2022-09-05T18:11:33.557Z,64.70